EWG55UW LGAV-EDDS
Flight info
| Callsign | EWG55UW |
|---|---|
| Flight time | N/A |
| Altitude | 36000 |
| Route | KOR UL53 ELVAS DCT DIMIS DCT ADDER DCT PETAK DCT GLOMY DCT ELTIB DCT NIVES DCT GORPA DCT INGID DCT SBG DCT TITIG L173 DODIL T127 TEKSI TEKSI5A |
| Aircraft | A320/M-SDE3FGHIRWY/LB1 |
Departure
| Time | 2026-05-04 15:40 |
|---|---|
| Airport | Athens Eleftherios Venizelos International Airport (LGAV) |
Arrival
| Time | N/A |
|---|---|
| Airport | Stuttgart Airport (EDDS) |
| Time | Latitude | Longitude | Altitude | Speed | Heading |
|---|---|---|---|---|---|
| 2026-05-04 15:01 | 37.93169 | 23.94320 | 301 ft | 0 kts | 217° |
| 2026-05-04 15:32 | 37.93192 | 23.94340 | 302 ft | 4 kts | 210° |
| 2026-05-04 15:32 | 37.93240 | 23.94356 | 301 ft | 4 kts | 143° |
| 2026-05-04 15:33 | 37.93246 | 23.94351 | 304 ft | 0 kts | 127° |
| 2026-05-04 15:36 | 37.93208 | 23.94414 | 301 ft | 12 kts | 127° |
| 2026-05-04 15:36 | 37.93145 | 23.94518 | 301 ft | 17 kts | 126° |
| 2026-05-04 15:36 | 37.93072 | 23.94647 | 302 ft | 17 kts | 126° |
| 2026-05-04 15:37 | 37.92970 | 23.94638 | 302 ft | 17 kts | 217° |
| 2026-05-04 15:37 | 37.92884 | 23.94555 | 302 ft | 14 kts | 217° |
| 2026-05-04 15:37 | 37.92806 | 23.94481 | 304 ft | 15 kts | 217° |
| 2026-05-04 15:37 | 37.92720 | 23.94399 | 303 ft | 17 kts | 217° |
| 2026-05-04 15:38 | 37.92629 | 23.94314 | 305 ft | 15 kts | 216° |
| 2026-05-04 15:38 | 37.92553 | 23.94297 | 305 ft | 10 kts | 146° |
| 2026-05-04 15:38 | 37.92512 | 23.94366 | 307 ft | 10 kts | 125° |
| 2026-05-04 15:38 | 37.92490 | 23.94457 | 308 ft | 14 kts | 60° |
| 2026-05-04 15:39 | 37.92618 | 23.94578 | 306 ft | 46 kts | 37° |
| 2026-05-04 15:39 | 37.93062 | 23.95001 | 297 ft | 111 kts | 37° |
| 2026-05-04 15:39 | 37.94771 | 23.96610 | 697 ft | 171 kts | 40° |
| 2026-05-04 15:40 | 37.95712 | 23.97517 | 1473 ft | 169 kts | 36° |
| 2026-05-04 15:40 | 37.96651 | 23.98436 | 2142 ft | 170 kts | 33° |
| 2026-05-04 15:40 | 37.97591 | 23.99343 | 2751 ft | 170 kts | 33° |
| 2026-05-04 15:40 | 37.98533 | 24.00246 | 3372 ft | 170 kts | 33° |
| 2026-05-04 15:41 | 37.99491 | 24.01170 | 3822 ft | 180 kts | 33° |
| 2026-05-04 15:41 | 38.00538 | 24.02171 | 4108 ft | 198 kts | 32° |
| 2026-05-04 15:41 | 38.01696 | 24.03269 | 4320 ft | 219 kts | 33° |
| 2026-05-04 15:41 | 38.02984 | 24.04490 | 4668 ft | 239 kts | 33° |
| 2026-05-04 15:42 | 38.04334 | 24.05784 | 5367 ft | 246 kts | 33° |
| 2026-05-04 15:42 | 38.05816 | 24.06910 | 5960 ft | 253 kts | 15° |
| 2026-05-04 15:42 | 38.07530 | 24.07166 | 6645 ft | 254 kts | 350° |
| 2026-05-04 15:42 | 38.09197 | 24.06372 | 7349 ft | 256 kts | 324° |
| 2026-05-04 15:43 | 38.10356 | 24.04683 | 8060 ft | 264 kts | 298° |
| 2026-05-04 15:43 | 38.10772 | 24.02389 | 8770 ft | 275 kts | 273° |
| 2026-05-04 15:43 | 38.10689 | 23.99935 | 9523 ft | 280 kts | 271° |
| 2026-05-04 15:43 | 38.10599 | 23.97445 | 10214 ft | 286 kts | 271° |
| 2026-05-04 15:44 | 38.10514 | 23.94825 | 10451 ft | 309 kts | 271° |
| 2026-05-04 15:44 | 38.10429 | 23.92003 | 10626 ft | 332 kts | 271° |
| 2026-05-04 15:44 | 38.10342 | 23.88978 | 10751 ft | 353 kts | 271° |
| 2026-05-04 15:44 | 38.10248 | 23.85768 | 10875 ft | 374 kts | 270° |
| 2026-05-04 15:45 | 38.10149 | 23.82399 | 11126 ft | 388 kts | 270° |
| 2026-05-04 15:45 | 38.10041 | 23.78944 | 11626 ft | 395 kts | 270° |
| 2026-05-04 15:45 | 38.09928 | 23.75442 | 12155 ft | 399 kts | 270° |
| 2026-05-04 15:45 | 38.09811 | 23.71894 | 12645 ft | 405 kts | 270° |
| 2026-05-04 15:46 | 38.09690 | 23.68298 | 13140 ft | 410 kts | 270° |
| 2026-05-04 15:46 | 38.09570 | 23.64667 | 13640 ft | 414 kts | 270° |
| 2026-05-04 15:46 | 38.09450 | 23.60990 | 14088 ft | 418 kts | 270° |
| 2026-05-04 15:46 | 38.09336 | 23.57299 | 14549 ft | 421 kts | 271° |
| 2026-05-04 15:47 | 38.09628 | 23.53668 | 14990 ft | 419 kts | 287° |
| 2026-05-04 15:47 | 38.10711 | 23.50250 | 15436 ft | 416 kts | 303° |
| 2026-05-04 15:47 | 38.12467 | 23.47339 | 15870 ft | 415 kts | 314° |
| 2026-05-04 15:47 | 38.14404 | 23.44597 | 16319 ft | 418 kts | 314° |
| 2026-05-04 15:48 | 38.16363 | 23.41839 | 16758 ft | 422 kts | 314° |
| 2026-05-04 15:48 | 38.18337 | 23.39064 | 17124 ft | 426 kts | 314° |
| 2026-05-04 15:48 | 38.22346 | 23.33402 | 17951 ft | 433 kts | 313° |
| 2026-05-04 15:49 | 38.23683 | 23.31503 | 18224 ft | 436 kts | 314° |
| 2026-05-04 15:49 | 38.25709 | 23.28623 | 18596 ft | 439 kts | 313° |
| 2026-05-04 15:49 | 38.28411 | 23.24775 | 19099 ft | 441 kts | 313° |
| 2026-05-04 15:49 | 38.29791 | 23.22809 | 19361 ft | 442 kts | 313° |
| 2026-05-04 15:50 | 38.32505 | 23.18936 | 19867 ft | 443 kts | 313° |
| 2026-05-04 15:50 | 38.34564 | 23.16000 | 20251 ft | 445 kts | 313° |
| 2026-05-04 15:50 | 38.35960 | 23.14011 | 20515 ft | 445 kts | 313° |
| 2026-05-04 15:50 | 38.38020 | 23.11069 | 20881 ft | 446 kts | 313° |
| 2026-05-04 15:51 | 38.40089 | 23.08109 | 21304 ft | 445 kts | 313° |
| 2026-05-04 15:51 | 38.42117 | 23.05206 | 21758 ft | 443 kts | 313° |
| 2026-05-04 15:51 | 38.44164 | 23.02274 | 22154 ft | 443 kts | 313° |
| 2026-05-04 15:51 | 38.46211 | 22.99341 | 22515 ft | 443 kts | 314° |
| 2026-05-04 15:52 | 38.48267 | 22.96397 | 22853 ft | 444 kts | 314° |
| 2026-05-04 15:52 | 38.50320 | 22.93454 | 23182 ft | 444 kts | 314° |
| 2026-05-04 15:52 | 38.52379 | 22.90503 | 23491 ft | 445 kts | 314° |
| 2026-05-04 15:52 | 38.54438 | 22.87542 | 23789 ft | 446 kts | 314° |
| 2026-05-04 15:53 | 38.56497 | 22.84575 | 24071 ft | 447 kts | 314° |
| 2026-05-04 15:53 | 38.58559 | 22.81604 | 24351 ft | 446 kts | 314° |
| 2026-05-04 15:53 | 38.60610 | 22.78643 | 24737 ft | 444 kts | 314° |
| 2026-05-04 15:53 | 38.62641 | 22.75705 | 25249 ft | 436 kts | 314° |
| 2026-05-04 15:54 | 38.64630 | 22.72821 | 25816 ft | 430 kts | 314° |
| 2026-05-04 15:54 | 38.66603 | 22.69957 | 26229 ft | 427 kts | 314° |
| 2026-05-04 15:54 | 38.68562 | 22.67119 | 26618 ft | 424 kts | 314° |
| 2026-05-04 15:54 | 38.70514 | 22.64293 | 26994 ft | 422 kts | 314° |
| 2026-05-04 15:55 | 38.72461 | 22.61475 | 27313 ft | 421 kts | 314° |
| 2026-05-04 15:55 | 38.74374 | 22.58702 | 27635 ft | 421 kts | 314° |
| 2026-05-04 15:55 | 38.76305 | 22.55899 | 28043 ft | 418 kts | 314° |
| 2026-05-04 15:55 | 38.78223 | 22.53106 | 28466 ft | 416 kts | 314° |
| 2026-05-04 15:56 | 38.80127 | 22.50329 | 28922 ft | 414 kts | 314° |
| 2026-05-04 15:56 | 38.82025 | 22.47563 | 29360 ft | 412 kts | 314° |
| 2026-05-04 15:56 | 38.83909 | 22.44810 | 29751 ft | 409 kts | 314° |
| 2026-05-04 15:56 | 38.85776 | 22.42079 | 30234 ft | 405 kts | 314° |
| 2026-05-04 15:57 | 38.87628 | 22.39374 | 30626 ft | 402 kts | 314° |
| 2026-05-04 15:57 | 38.89472 | 22.36681 | 30946 ft | 401 kts | 314° |
| 2026-05-04 15:57 | 38.91310 | 22.33992 | 31244 ft | 400 kts | 314° |
| 2026-05-04 15:57 | 38.93142 | 22.31308 | 31531 ft | 399 kts | 314° |
| 2026-05-04 15:58 | 38.94971 | 22.28627 | 31818 ft | 399 kts | 314° |
| 2026-05-04 15:58 | 38.96804 | 22.25937 | 32045 ft | 400 kts | 314° |
| 2026-05-04 15:58 | 38.98634 | 22.23248 | 32307 ft | 400 kts | 314° |
| 2026-05-04 15:58 | 39.00460 | 22.20559 | 32595 ft | 399 kts | 314° |
| 2026-05-04 15:59 | 39.02283 | 22.17873 | 32902 ft | 398 kts | 314° |
| 2026-05-04 15:59 | 39.04104 | 22.15193 | 33186 ft | 397 kts | 314° |
| 2026-05-04 15:59 | 39.05921 | 22.12519 | 33435 ft | 397 kts | 314° |
| 2026-05-04 15:59 | 39.07739 | 22.09843 | 33705 ft | 396 kts | 314° |
| 2026-05-04 16:00 | 39.09552 | 22.07176 | 33985 ft | 396 kts | 314° |
| 2026-05-04 16:00 | 39.11368 | 22.04495 | 34090 ft | 398 kts | 314° |
| 2026-05-04 16:00 | 39.15032 | 21.99074 | 34103 ft | 403 kts | 314° |
| 2026-05-04 16:01 | 39.18715 | 21.93620 | 34100 ft | 404 kts | 314° |
| 2026-05-04 16:01 | 39.22376 | 21.88190 | 34101 ft | 404 kts | 314° |
| 2026-05-04 16:02 | 39.26070 | 21.82700 | 34098 ft | 405 kts | 314° |
| 2026-05-04 16:03 | 39.31610 | 21.74441 | 34075 ft | 405 kts | 314° |
| 2026-05-04 16:03 | 39.35298 | 21.68930 | 34079 ft | 406 kts | 314° |
| 2026-05-04 16:04 | 39.38990 | 21.63408 | 34085 ft | 406 kts | 314° |
| 2026-05-04 16:04 | 39.44515 | 21.55111 | 34088 ft | 406 kts | 313° |
| 2026-05-04 16:05 | 39.48197 | 21.49581 | 34095 ft | 406 kts | 314° |
| 2026-05-04 16:06 | 39.53704 | 21.41292 | 34101 ft | 406 kts | 313° |
| 2026-05-04 16:07 | 39.61069 | 21.30175 | 34098 ft | 407 kts | 313° |
| 2026-05-04 16:08 | 39.68431 | 21.19012 | 34098 ft | 407 kts | 313° |
| 2026-05-04 16:09 | 39.77636 | 21.05000 | 34079 ft | 408 kts | 313° |
| 2026-05-04 16:10 | 39.84989 | 20.93767 | 34093 ft | 409 kts | 313° |
| 2026-05-04 16:11 | 39.92367 | 20.82438 | 34089 ft | 411 kts | 313° |
| 2026-05-04 16:14 | 40.16935 | 20.53306 | 34093 ft | 407 kts | 334° |
| 2026-05-04 16:14 | 40.22023 | 20.50046 | 34088 ft | 407 kts | 334° |